sensor_id;sensor_type;location;lat;lon;timestamp;temperature;humidity
19968;DHT22;10145;49.152;9.282;2022-11-09T05:00:18;10.10;99.90
19968;DHT22;10145;49.152;9.282;2022-11-09T05:02:44;10.10;99.90
19968;DHT22;10145;49.152;9.282;2022-11-09T05:05:10;10.20;99.90
19968;DHT22;10145;49.152;9.282;2022-11-09T05:07:36;10.20;99.90
19968;DHT22;10145;49.152;9.282;2022-11-09T05:10:01;10.20;99.90
19968;DHT22;10145;49.152;9.282;2022-11-09T05:12:27;10.30;99.90
19968;DHT22;10145;49.152;9.282;2022-11-09T05:14:52;10.30;99.90
19968;DHT22;10145;49.152;9.282;2022-11-09T05:17:18;10.40;99.90
19968;DHT22;10145;49.152;9.282;2022-11-09T05:19:43;10.50;99.90
19968;DHT22;10145;49.152;9.282;2022-11-09T05:22:09;10.50;99.90
19968;DHT22;10145;49.152;9.282;2022-11-09T05:24:53;10.60;99.90
19968;DHT22;10145;49.152;9.282;2022-11-09T05:27:18;10.60;99.90
19968;DHT22;10145;49.152;9.282;2022-11-09T05:29:44;10.70;99.90
19968;DHT22;10145;49.152;9.282;2022-11-09T05:32:09;10.70;99.90
19968;DHT22;10145;49.152;9.282;2022-11-09T05:34:35;10.70;99.90
19968;DHT22;10145;49.152;9.282;2022-11-09T05:37:00;10.70;99.90
19968;DHT22;10145;49.152;9.282;2022-11-09T05:39:26;10.80;99.90
19968;DHT22;10145;49.152;9.282;2022-11-09T05:41:52;10.80;99.90
19968;DHT22;10145;49.152;9.282;2022-11-09T05:44:17;10.80;99.90
19968;DHT22;10145;49.152;9.282;2022-11-09T05:46:43;10.90;99.90
19968;DHT22;10145;49.152;9.282;2022-11-09T05:49:08;10.90;99.90
19968;DHT22;10145;49.152;9.282;2022-11-09T05:51:34;10.90;99.90
19968;DHT22;10145;49.152;9.282;2022-11-09T05:53:59;11.00;99.90
19968;DHT22;10145;49.152;9.282;2022-11-09T05:56:25;11.00;99.90
19968;DHT22;10145;49.152;9.282;2022-11-09T05:58:50;11.00;99.90
19968;DHT22;10145;49.152;9.282;2022-11-09T06:01:17;11.00;99.90
19968;DHT22;10145;49.152;9.282;2022-11-09T06:03:45;11.00;99.90
19968;DHT22;10145;49.152;9.282;2022-11-09T06:06:13;11.10;99.90
19968;DHT22;10145;49.152;9.282;2022-11-09T06:08:39;11.10;99.90
19968;DHT22;10145;49.152;9.282;2022-11-09T06:11:09;11.00;99.90
19968;DHT22;10145;49.152;9.282;2022-11-09T06:13:35;11.00;99.90
19968;DHT22;10145;49.152;9.282;2022-11-09T06:16:02;10.90;99.90
19968;DHT22;10145;49.152;9.282;2022-11-09T06:18:29;10.90;99.90
19968;DHT22;10145;49.152;9.282;2022-11-09T06:20:58;10.90;99.90
19968;DHT22;10145;49.152;9.282;2022-11-09T06:23:24;10.90;99.90
19968;DHT22;10145;49.152;9.282;2022-11-09T06:25:57;10.90;99.90
19968;DHT22;10145;49.152;9.282;2022-11-09T06:28:22;10.90;99.90
19968;DHT22;10145;49.152;9.282;2022-11-09T06:30:48;11.00;99.90
19968;DHT22;10145;49.152;9.282;2022-11-09T06:33:14;10.80;99.90
19968;DHT22;10145;49.152;9.282;2022-11-09T06:35:39;11.00;99.90
19968;DHT22;10145;49.152;9.282;2022-11-09T06:38:05;11.00;99.90
19968;DHT22;10145;49.152;9.282;2022-11-09T06:40:34;11.10;99.90
19968;DHT22;10145;49.152;9.282;2022-11-09T06:43:01;11.10;99.90
19968;DHT22;10145;49.152;9.282;2022-11-09T06:45:27;11.10;99.90
19968;DHT22;10145;49.152;9.282;2022-11-09T06:47:58;11.10;99.90
19968;DHT22;10145;49.152;9.282;2022-11-09T06:50:24;11.10;99.90
19968;DHT22;10145;49.152;9.282;2022-11-09T06:52:57;11.10;99.90
19968;DHT22;10145;49.152;9.282;2022-11-09T06:55:28;11.20;99.90
19968;DHT22;10145;49.152;9.282;2022-11-09T06:57:54;11.20;99.90
19968;DHT22;10145;49.152;9.282;2022-11-09T07:00:21;11.20;99.90
19968;DHT22;10145;49.152;9.282;2022-11-09T07:02:46;11.20;99.90
19968;DHT22;10145;49.152;9.282;2022-11-09T07:05:12;11.20;99.90
19968;DHT22;10145;49.152;9.282;2022-11-09T07:07:38;11.20;99.90
19968;DHT22;10145;49.152;9.282;2022-11-09T07:10:03;11.20;99.90
19968;DHT22;10145;49.152;9.282;2022-11-09T07:12:29;11.20;99.90
19968;DHT22;10145;49.152;9.282;2022-11-09T07:14:55;11.20;99.90
19968;DHT22;10145;49.152;9.282;2022-11-09T07:17:20;11.20;99.90
19968;DHT22;10145;49.152;9.282;2022-11-09T07:19:46;11.20;99.90
19968;DHT22;10145;49.152;9.282;2022-11-09T07:22:11;11.20;99.90
19968;DHT22;10145;49.152;9.282;2022-11-09T07:24:37;11.30;99.90
19968;DHT22;10145;49.152;9.282;2022-11-09T07:27:02;11.30;99.90
19968;DHT22;10145;49.152;9.282;2022-11-09T07:29:28;11.30;99.90
19968;DHT22;10145;49.152;9.282;2022-11-09T07:31:54;11.30;99.90
19968;DHT22;10145;49.152;9.282;2022-11-09T07:34:20;11.30;99.90
19968;DHT22;10145;49.152;9.282;2022-11-09T07:36:45;11.30;99.90
19968;DHT22;10145;49.152;9.282;2022-11-09T07:39:11;11.30;99.90
19968;DHT22;10145;49.152;9.282;2022-11-09T07:41:36;11.30;99.90
19968;DHT22;10145;49.152;9.282;2022-11-09T07:44:02;11.30;99.90
19968;DHT22;10145;49.152;9.282;2022-11-09T07:46:28;11.30;99.90
19968;DHT22;10145;49.152;9.282;2022-11-09T07:48:54;11.30;99.90
19968;DHT22;10145;49.152;9.282;2022-11-09T07:51:19;11.40;99.90
19968;DHT22;10145;49.152;9.282;2022-11-09T07:53:45;11.40;99.90
19968;DHT22;10145;49.152;9.282;2022-11-09T07:56:11;11.40;99.90
19968;DHT22;10145;49.152;9.282;2022-11-09T07:58:36;11.40;99.90
19968;DHT22;10145;49.152;9.282;2022-11-09T08:01:09;11.40;99.90
19968;DHT22;10145;49.152;9.282;2022-11-09T08:03:34;11.40;99.90
19968;DHT22;10145;49.152;9.282;2022-11-09T08:06:00;11.60;99.90
19968;DHT22;10145;49.152;9.282;2022-11-09T08:08:26;11.50;99.90
19968;DHT22;10145;49.152;9.282;2022-11-09T08:10:52;11.50;99.90
19968;DHT22;10145;49.152;9.282;2022-11-09T08:13:18;11.50;99.90
19968;DHT22;10145;49.152;9.282;2022-11-09T08:15:44;11.60;99.90
19968;DHT22;10145;49.152;9.282;2022-11-09T08:18:16;11.70;99.90
19968;DHT22;10145;49.152;9.282;2022-11-09T08:20:42;11.80;99.90
19968;DHT22;10145;49.152;9.282;2022-11-09T08:23:11;11.90;99.90
19968;DHT22;10145;49.152;9.282;2022-11-09T08:25:37;11.80;99.90
19968;DHT22;10145;49.152;9.282;2022-11-09T08:28:03;11.80;99.90
19968;DHT22;10145;49.152;9.282;2022-11-09T08:30:28;11.90;99.90
19968;DHT22;10145;49.152;9.282;2022-11-09T08:32:54;11.80;99.90
19968;DHT22;10145;49.152;9.282;2022-11-09T08:35:22;11.80;99.90
19968;DHT22;10145;49.152;9.282;2022-11-09T08:37:49;11.70;99.90
19968;DHT22;10145;49.152;9.282;2022-11-09T08:40:21;11.70;99.90
19968;DHT22;10145;49.152;9.282;2022-11-09T08:42:47;11.70;99.90
19968;DHT22;10145;49.152;9.282;2022-11-09T08:45:13;11.90;99.90
19968;DHT22;10145;49.152;9.282;2022-11-09T08:47:39;11.90;99.90
19968;DHT22;10145;49.152;9.282;2022-11-09T08:50:07;11.90;99.90
19968;DHT22;10145;49.152;9.282;2022-11-09T08:52:33;11.90;99.90
19968;DHT22;10145;49.152;9.282;2022-11-09T08:54:59;12.00;99.90
19968;DHT22;10145;49.152;9.282;2022-11-09T08:57:25;12.00;99.90
19968;DHT22;10145;49.152;9.282;2022-11-09T08:59:50;11.90;99.90
19968;DHT22;10145;49.152;9.282;2022-11-09T09:02:16;11.80;99.90
19968;DHT22;10145;49.152;9.282;2022-11-09T09:04:42;11.80;99.90
19968;DHT22;10145;49.152;9.282;2022-11-09T09:07:08;11.80;99.90
19968;DHT22;10145;49.152;9.282;2022-11-09T09:09:34;11.70;99.90
19968;DHT22;10145;49.152;9.282;2022-11-09T09:12:03;11.70;99.90
19968;DHT22;10145;49.152;9.282;2022-11-09T09:14:28;11.80;99.90
19968;DHT22;10145;49.152;9.282;2022-11-09T09:16:54;11.80;99.90
19968;DHT22;10145;49.152;9.282;2022-11-09T09:19:20;11.80;99.90
19968;DHT22;10145;49.152;9.282;2022-11-09T09:21:46;11.80;99.90
19968;DHT22;10145;49.152;9.282;2022-11-09T09:24:11;11.90;99.90
19968;DHT22;10145;49.152;9.282;2022-11-09T09:26:37;11.90;99.90
19968;DHT22;10145;49.152;9.282;2022-11-09T09:29:03;11.80;99.90
19968;DHT22;10145;49.152;9.282;2022-11-09T09:31:28;11.90;99.90
19968;DHT22;10145;49.152;9.282;2022-11-09T09:33:54;12.00;99.90
19968;DHT22;10145;49.152;9.282;2022-11-09T09:36:21;12.10;99.90
19968;DHT22;10145;49.152;9.282;2022-11-09T09:38:51;12.10;99.90
19968;DHT22;10145;49.152;9.282;2022-11-09T09:41:29;12.20;99.90
19968;DHT22;10145;49.152;9.282;2022-11-09T09:49:30;12.30;99.90
19968;DHT22;10145;49.152;9.282;2022-11-09T09:52:11;12.30;99.90
19968;DHT22;10145;49.152;9.282;2022-11-09T09:54:41;12.40;99.90
19968;DHT22;10145;49.152;9.282;2022-11-09T09:57:15;12.50;99.90
19968;DHT22;10145;49.152;9.282;2022-11-09T09:59:45;12.60;99.90
19968;DHT22;10145;49.152;9.282;2022-11-09T10:02:25;12.70;99.90
19968;DHT22;10145;49.152;9.282;2022-11-09T10:04:57;12.70;99.90
19968;DHT22;10145;49.152;9.282;2022-11-09T10:14:20;13.00;99.90
19968;DHT22;10145;49.152;9.282;2022-11-09T10:16:43;13.10;99.90
19968;DHT22;10145;49.152;9.282;2022-11-09T10:19:21;13.10;99.90
19968;DHT22;10145;49.152;9.282;2022-11-09T10:22:02;13.20;99.90
19968;DHT22;10145;49.152;9.282;2022-11-09T10:27:33;13.40;99.90
19968;DHT22;10145;49.152;9.282;2022-11-09T10:30:00;13.50;99.90
19968;DHT22;10145;49.152;9.282;2022-11-09T10:32:29;13.70;99.90
19968;DHT22;10145;49.152;9.282;2022-11-09T10:35:06;13.70;99.90
19968;DHT22;10145;49.152;9.282;2022-11-09T10:37:40;13.90;99.90
19968;DHT22;10145;49.152;9.282;2022-11-09T10:40:20;14.00;99.90
19968;DHT22;10145;49.152;9.282;2022-11-09T10:42:53;14.10;99.90
19968;DHT22;10145;49.152;9.282;2022-11-09T10:45:31;14.20;99.90
19968;DHT22;10145;49.152;9.282;2022-11-09T10:47:58;14.30;99.90
19968;DHT22;10145;49.152;9.282;2022-11-09T10:55:35;14.30;99.90
19968;DHT22;10145;49.152;9.282;2022-11-09T11:01:18;14.30;99.90
19968;DHT22;10145;49.152;9.282;2022-11-09T11:03:46;14.40;99.90
19968;DHT22;10145;49.152;9.282;2022-11-09T11:08:47;14.40;99.90
19968;DHT22;10145;49.152;9.282;2022-11-09T11:11:28;14.60;99.90
19968;DHT22;10145;49.152;9.282;2022-11-09T11:14:27;14.50;99.90
19968;DHT22;10145;49.152;9.282;2022-11-09T11:16:54;14.50;99.90
19968;DHT22;10145;49.152;9.282;2022-11-09T11:22:14;14.40;99.90
19968;DHT22;10145;49.152;9.282;2022-11-09T11:24:59;14.40;99.90
19968;DHT22;10145;49.152;9.282;2022-11-09T11:27:35;14.70;99.90
19968;DHT22;10145;49.152;9.282;2022-11-09T11:30:25;15.00;99.90
19968;DHT22;10145;49.152;9.282;2022-11-09T11:32:56;14.90;99.90
19968;DHT22;10145;49.152;9.282;2022-11-09T11:35:48;14.80;99.90
19968;DHT22;10145;49.152;9.282;2022-11-09T11:38:38;14.60;99.90
19968;DHT22;10145;49.152;9.282;2022-11-09T11:52:42;14.90;99.90
19968;DHT22;10145;49.152;9.282;2022-11-09T12:04:00;15.10;99.90
19968;DHT22;10145;49.152;9.282;2022-11-09T12:20:20;15.60;99.90
19968;DHT22;10145;49.152;9.282;2022-11-09T12:31:34;15.90;99.90
19968;DHT22;10145;49.152;9.282;2022-11-09T12:37:00;15.80;99.90
19968;DHT22;10145;49.152;9.282;2022-11-09T12:39:44;15.60;99.90
19968;DHT22;10145;49.152;9.282;2022-11-09T12:42:19;15.50;99.90
19968;DHT22;10145;49.152;9.282;2022-11-09T12:47:23;15.50;99.90
19968;DHT22;10145;49.152;9.282;2022-11-09T12:49:52;15.50;99.90
19968;DHT22;10145;49.152;9.282;2022-11-09T12:52:22;15.60;99.90
19968;DHT22;10145;49.152;9.282;2022-11-09T12:54:52;15.50;99.90
19968;DHT22;10145;49.152;9.282;2022-11-09T12:57:24;15.40;99.90
19968;DHT22;10145;49.152;9.282;2022-11-09T12:59:56;15.30;99.90
19968;DHT22;10145;49.152;9.282;2022-11-09T13:05:29;15.00;99.90
19968;DHT22;10145;49.152;9.282;2022-11-09T13:07:58;15.00;99.90
19968;DHT22;10145;49.152;9.282;2022-11-09T13:15:37;15.00;99.90
19968;DHT22;10145;49.152;9.282;2022-11-09T13:19:04;14.90;99.90
19968;DHT22;10145;49.152;9.282;2022-11-09T13:23:46;14.90;99.90
19968;DHT22;10145;49.152;9.282;2022-11-09T13:32:01;14.70;99.90
19968;DHT22;10145;49.152;9.282;2022-11-09T13:34:58;14.60;99.90
19968;DHT22;10145;49.152;9.282;2022-11-09T13:43:03;14.60;99.90
19968;DHT22;10145;49.152;9.282;2022-11-09T13:45:36;14.60;99.90
19968;DHT22;10145;49.152;9.282;2022-11-09T13:48:04;14.60;99.90
19968;DHT22;10145;49.152;9.282;2022-11-09T13:50:32;14.60;99.90
19968;DHT22;10145;49.152;9.282;2022-11-09T13:52:59;14.60;99.90
19968;DHT22;10145;49.152;9.282;2022-11-09T13:58:00;14.40;99.90
19968;DHT22;10145;49.152;9.282;2022-11-09T14:00:26;14.50;99.90
19968;DHT22;10145;49.152;9.282;2022-11-09T14:03:00;14.50;99.90
19968;DHT22;10145;49.152;9.282;2022-11-09T14:05:34;14.40;99.90
19968;DHT22;10145;49.152;9.282;2022-11-09T14:08:03;14.40;99.90
19968;DHT22;10145;49.152;9.282;2022-11-09T14:11:16;14.40;99.90
19968;DHT22;10145;49.152;9.282;2022-11-09T14:21:36;14.20;99.90
19968;DHT22;10145;49.152;9.282;2022-11-09T14:24:30;14.20;99.90
19968;DHT22;10145;49.152;9.282;2022-11-09T14:29:35;14.10;99.90
19968;DHT22;10145;49.152;9.282;2022-11-09T14:32:25;14.10;99.90
19968;DHT22;10145;49.152;9.282;2022-11-09T14:34:51;14.10;99.90
19968;DHT22;10145;49.152;9.282;2022-11-09T14:37:17;14.10;99.90
19968;DHT22;10145;49.152;9.282;2022-11-09T14:39:50;14.00;99.90
19968;DHT22;10145;49.152;9.282;2022-11-09T14:42:19;14.00;99.90
19968;DHT22;10145;49.152;9.282;2022-11-09T14:44:45;13.90;99.90
19968;DHT22;10145;49.152;9.282;2022-11-09T14:47:17;13.90;99.90
19968;DHT22;10145;49.152;9.282;2022-11-09T14:49:43;13.80;99.90
19968;DHT22;10145;49.152;9.282;2022-11-09T14:52:16;13.80;99.90
19968;DHT22;10145;49.152;9.282;2022-11-09T14:54:43;13.70;99.90
19968;DHT22;10145;49.152;9.282;2022-11-09T14:57:13;13.70;99.90
19968;DHT22;10145;49.152;9.282;2022-11-09T14:59:41;13.70;99.90
19968;DHT22;10145;49.152;9.282;2022-11-09T15:02:10;13.70;99.90
19968;DHT22;10145;49.152;9.282;2022-11-09T15:04:54;13.70;99.90
19968;DHT22;10145;49.152;9.282;2022-11-09T15:07:21;13.60;99.90
19968;DHT22;10145;49.152;9.282;2022-11-09T15:09:53;13.60;99.90
19968;DHT22;10145;49.152;9.282;2022-11-09T15:12:20;13.60;99.90
19968;DHT22;10145;49.152;9.282;2022-11-09T15:14:52;13.50;99.90
19968;DHT22;10145;49.152;9.282;2022-11-09T15:17:25;13.50;99.90
19968;DHT22;10145;49.152;9.282;2022-11-09T15:22:58;13.40;99.90
19968;DHT22;10145;49.152;9.282;2022-11-09T15:25:53;13.40;99.90
19968;DHT22;10145;49.152;9.282;2022-11-09T15:28:24;13.40;99.90
19968;DHT22;10145;49.152;9.282;2022-11-09T15:33:26;13.30;99.90
19968;DHT22;10145;49.152;9.282;2022-11-09T15:38:40;13.20;99.90
19968;DHT22;10145;49.152;9.282;2022-11-09T15:41:18;13.30;99.90
19968;DHT22;10145;49.152;9.282;2022-11-09T15:43:44;13.30;99.90
19968;DHT22;10145;49.152;9.282;2022-11-09T15:46:17;13.20;99.90
19968;DHT22;10145;49.152;9.282;2022-11-09T15:48:43;13.20;99.90
19968;DHT22;10145;49.152;9.282;2022-11-09T15:51:10;13.20;99.90
19968;DHT22;10145;49.152;9.282;2022-11-09T15:53:36;13.10;99.90
19968;DHT22;10145;49.152;9.282;2022-11-09T15:56:02;13.10;99.90
19968;DHT22;10145;49.152;9.282;2022-11-09T15:58:28;13.10;99.90
19968;DHT22;10145;49.152;9.282;2022-11-09T16:00:53;13.00;99.90
19968;DHT22;10145;49.152;9.282;2022-11-09T16:03:19;13.00;99.90
19968;DHT22;10145;49.152;9.282;2022-11-09T16:05:44;13.00;99.90
19968;DHT22;10145;49.152;9.282;2022-11-09T16:08:10;12.90;99.90
19968;DHT22;10145;49.152;9.282;2022-11-09T16:10:36;12.90;99.90
19968;DHT22;10145;49.152;9.282;2022-11-09T16:13:05;12.90;99.90
19968;DHT22;10145;49.152;9.282;2022-11-09T16:15:32;12.80;99.90
19968;DHT22;10145;49.152;9.282;2022-11-09T16:17:58;12.80;99.90
19968;DHT22;10145;49.152;9.282;2022-11-09T16:20:23;12.80;99.90
19968;DHT22;10145;49.152;9.282;2022-11-09T16:22:49;12.80;99.90
19968;DHT22;10145;49.152;9.282;2022-11-09T16:25:15;12.70;99.90
19968;DHT22;10145;49.152;9.282;2022-11-09T16:27:41;12.70;99.90
19968;DHT22;10145;49.152;9.282;2022-11-09T16:30:08;12.70;99.90
19968;DHT22;10145;49.152;9.282;2022-11-09T16:32:34;12.70;99.90
19968;DHT22;10145;49.152;9.282;2022-11-09T16:35:00;12.60;99.90
19968;DHT22;10145;49.152;9.282;2022-11-09T16:37:28;12.60;99.90
19968;DHT22;10145;49.152;9.282;2022-11-09T16:39:57;12.60;99.90
19968;DHT22;10145;49.152;9.282;2022-11-09T16:42:24;12.60;99.90
19968;DHT22;10145;49.152;9.282;2022-11-09T16:44:50;12.60;99.90
19968;DHT22;10145;49.152;9.282;2022-11-09T16:47:16;12.60;99.90
19968;DHT22;10145;49.152;9.282;2022-11-09T16:49:42;12.60;99.90
19968;DHT22;10145;49.152;9.282;2022-11-09T16:52:08;12.50;99.90
19968;DHT22;10145;49.152;9.282;2022-11-09T16:54:34;12.50;99.90
19968;DHT22;10145;49.152;9.282;2022-11-09T16:57:01;12.50;99.90
19968;DHT22;10145;49.152;9.282;2022-11-09T16:59:26;12.60;99.90
19968;DHT22;10145;49.152;9.282;2022-11-09T17:01:54;12.50;99.90
19968;DHT22;10145;49.152;9.282;2022-11-09T17:04:20;12.40;99.90
19968;DHT22;10145;49.152;9.282;2022-11-09T17:06:46;12.40;99.90
19968;DHT22;10145;49.152;9.282;2022-11-09T17:09:12;12.40;99.90
19968;DHT22;10145;49.152;9.282;2022-11-09T17:11:38;12.50;99.90
19968;DHT22;10145;49.152;9.282;2022-11-09T17:14:04;12.40;99.90
19968;DHT22;10145;49.152;9.282;2022-11-09T17:16:29;12.50;99.90
19968;DHT22;10145;49.152;9.282;2022-11-09T17:18:56;12.50;99.90
19968;DHT22;10145;49.152;9.282;2022-11-09T17:21:23;12.50;99.90
19968;DHT22;10145;49.152;9.282;2022-11-09T17:23:49;12.40;99.90
19968;DHT22;10145;49.152;9.282;2022-11-09T17:26:16;12.40;99.90
19968;DHT22;10145;49.152;9.282;2022-11-09T17:28:42;12.40;99.90
19968;DHT22;10145;49.152;9.282;2022-11-09T17:33:34;12.40;99.90
19968;DHT22;10145;49.152;9.282;2022-11-09T17:36:01;12.40;99.90
19968;DHT22;10145;49.152;9.282;2022-11-09T17:38:27;12.40;99.90
19968;DHT22;10145;49.152;9.282;2022-11-09T17:41:04;12.30;99.90
19968;DHT22;10145;49.152;9.282;2022-11-09T17:43:34;12.30;99.90
19968;DHT22;10145;49.152;9.282;2022-11-09T17:46:09;12.30;99.90
19968;DHT22;10145;49.152;9.282;2022-11-09T17:48:36;12.30;99.90
19968;DHT22;10145;49.152;9.282;2022-11-09T17:51:02;12.30;99.90
19968;DHT22;10145;49.152;9.282;2022-11-09T17:53:29;12.30;99.90
19968;DHT22;10145;49.152;9.282;2022-11-09T17:55:54;12.20;99.90
19968;DHT22;10145;49.152;9.282;2022-11-09T17:58:20;12.20;99.90
19968;DHT22;10145;49.152;9.282;2022-11-09T18:00:46;12.20;99.90
19968;DHT22;10145;49.152;9.282;2022-11-09T18:03:12;12.20;99.90
19968;DHT22;10145;49.152;9.282;2022-11-09T18:05:39;12.10;99.90
19968;DHT22;10145;49.152;9.282;2022-11-09T18:08:05;12.10;99.90
19968;DHT22;10145;49.152;9.282;2022-11-09T18:10:36;12.10;99.90
19968;DHT22;10145;49.152;9.282;2022-11-09T18:13:02;12.10;99.90
19968;DHT22;10145;49.152;9.282;2022-11-09T18:15:28;12.10;99.90
19968;DHT22;10145;49.152;9.282;2022-11-09T18:17:54;12.10;99.90
19968;DHT22;10145;49.152;9.282;2022-11-09T18:20:20;12.10;99.90
19968;DHT22;10145;49.152;9.282;2022-11-09T18:22:46;12.10;99.90
19968;DHT22;10145;49.152;9.282;2022-11-09T18:25:14;12.10;99.90
19968;DHT22;10145;49.152;9.282;2022-11-09T18:27:40;12.10;99.90
19968;DHT22;10145;49.152;9.282;2022-11-09T18:30:06;12.10;99.90
19968;DHT22;10145;49.152;9.282;2022-11-09T18:32:32;12.10;99.90
19968;DHT22;10145;49.152;9.282;2022-11-09T18:34:57;12.10;99.90
19968;DHT22;10145;49.152;9.282;2022-11-09T18:37:23;12.10;99.90
19968;DHT22;10145;49.152;9.282;2022-11-09T18:39:48;12.10;99.90
19968;DHT22;10145;49.152;9.282;2022-11-09T18:42:14;12.20;99.90
19968;DHT22;10145;49.152;9.282;2022-11-09T18:44:39;12.20;99.90
19968;DHT22;10145;49.152;9.282;2022-11-09T18:47:05;12.20;99.90
19968;DHT22;10145;49.152;9.282;2022-11-09T18:49:34;12.20;99.90
19968;DHT22;10145;49.152;9.282;2022-11-09T18:52:00;12.20;99.90
19968;DHT22;10145;49.152;9.282;2022-11-09T18:54:26;12.30;99.90
19968;DHT22;10145;49.152;9.282;2022-11-09T18:56:51;12.30;99.90
19968;DHT22;10145;49.152;9.282;2022-11-09T18:59:18;12.30;99.90
19968;DHT22;10145;49.152;9.282;2022-11-09T19:01:44;12.30;99.90
19968;DHT22;10145;49.152;9.282;2022-11-09T19:04:14;12.30;99.90
19968;DHT22;10145;49.152;9.282;2022-11-09T19:06:41;12.40;99.90
19968;DHT22;10145;49.152;9.282;2022-11-09T19:09:12;12.40;99.90
19968;DHT22;10145;49.152;9.282;2022-11-09T19:11:59;12.40;99.90
19968;DHT22;10145;49.152;9.282;2022-11-09T19:14:26;12.40;99.90
19968;DHT22;10145;49.152;9.282;2022-11-09T19:16:52;12.40;99.90
19968;DHT22;10145;49.152;9.282;2022-11-09T19:19:18;12.40;99.90
19968;DHT22;10145;49.152;9.282;2022-11-09T19:21:52;12.40;99.90
19968;DHT22;10145;49.152;9.282;2022-11-09T19:24:21;12.40;99.90
19968;DHT22;10145;49.152;9.282;2022-11-09T19:26:47;12.40;99.90
19968;DHT22;10145;49.152;9.282;2022-11-09T19:29:16;12.30;99.90
19968;DHT22;10145;49.152;9.282;2022-11-09T19:31:43;12.10;99.90
19968;DHT22;10145;49.152;9.282;2022-11-09T19:34:14;12.00;99.90
19968;DHT22;10145;49.152;9.282;2022-11-09T19:36:40;11.90;99.90
19968;DHT22;10145;49.152;9.282;2022-11-09T19:39:11;11.80;99.90
19968;DHT22;10145;49.152;9.282;2022-11-09T19:41:37;11.70;99.90
19968;DHT22;10145;49.152;9.282;2022-11-09T19:44:03;11.70;99.90
19968;DHT22;10145;49.152;9.282;2022-11-09T19:46:32;11.60;99.90
19968;DHT22;10145;49.152;9.282;2022-11-09T19:48:58;11.60;99.90
19968;DHT22;10145;49.152;9.282;2022-11-09T19:51:25;11.60;99.90
19968;DHT22;10145;49.152;9.282;2022-11-09T19:53:55;11.50;99.90
19968;DHT22;10145;49.152;9.282;2022-11-09T19:56:23;11.50;99.90
19968;DHT22;10145;49.152;9.282;2022-11-09T19:58:54;11.50;99.90
19968;DHT22;10145;49.152;9.282;2022-11-09T20:01:20;11.40;99.90
19968;DHT22;10145;49.152;9.282;2022-11-09T20:03:50;11.50;99.90
19968;DHT22;10145;49.152;9.282;2022-11-09T20:06:17;11.40;99.90
19968;DHT22;10145;49.152;9.282;2022-11-09T20:08:42;11.40;99.90
19968;DHT22;10145;49.152;9.282;2022-11-09T20:11:10;11.40;99.90
19968;DHT22;10145;49.152;9.282;2022-11-09T20:13:37;11.40;99.90
19968;DHT22;10145;49.152;9.282;2022-11-09T20:16:05;11.40;99.90
19968;DHT22;10145;49.152;9.282;2022-11-09T20:18:33;11.40;99.90
19968;DHT22;10145;49.152;9.282;2022-11-09T20:20:59;11.60;99.90
19968;DHT22;10145;49.152;9.282;2022-11-09T20:23:25;11.40;99.90
19968;DHT22;10145;49.152;9.282;2022-11-09T20:25:50;11.40;99.90
19968;DHT22;10145;49.152;9.282;2022-11-09T20:28:16;11.40;99.90
19968;DHT22;10145;49.152;9.282;2022-11-09T20:30:41;11.40;99.90
19968;DHT22;10145;49.152;9.282;2022-11-09T20:33:07;11.50;99.90
19968;DHT22;10145;49.152;9.282;2022-11-09T20:35:34;11.40;99.90
19968;DHT22;10145;49.152;9.282;2022-11-09T20:38:00;11.40;99.90
19968;DHT22;10145;49.152;9.282;2022-11-09T20:40:26;11.40;99.90
19968;DHT22;10145;49.152;9.282;2022-11-09T20:42:51;11.40;99.90
19968;DHT22;10145;49.152;9.282;2022-11-09T20:45:17;11.40;99.90
19968;DHT22;10145;49.152;9.282;2022-11-09T20:47:43;11.40;99.90
19968;DHT22;10145;49.152;9.282;2022-11-09T20:50:09;11.40;99.90
19968;DHT22;10145;49.152;9.282;2022-11-09T20:52:34;11.30;99.90
19968;DHT22;10145;49.152;9.282;2022-11-09T20:55:00;11.40;99.90
19968;DHT22;10145;49.152;9.282;2022-11-09T20:57:25;11.40;99.90
19968;DHT22;10145;49.152;9.282;2022-11-09T20:59:51;11.40;99.90
19968;DHT22;10145;49.152;9.282;2022-11-09T21:02:16;11.40;99.90
19968;DHT22;10145;49.152;9.282;2022-11-09T21:04:42;11.50;99.90
19968;DHT22;10145;49.152;9.282;2022-11-09T21:07:08;11.50;99.90
19968;DHT22;10145;49.152;9.282;2022-11-09T21:09:33;11.40;99.90
19968;DHT22;10145;49.152;9.282;2022-11-09T21:11:59;11.50;99.90
19968;DHT22;10145;49.152;9.282;2022-11-09T21:14:43;11.50;99.90
19968;DHT22;10145;49.152;9.282;2022-11-09T21:17:09;11.60;99.90
19968;DHT22;10145;49.152;9.282;2022-11-09T21:19:36;11.60;99.90
19968;DHT22;10145;49.152;9.282;2022-11-09T21:22:01;11.60;99.90
19968;DHT22;10145;49.152;9.282;2022-11-09T21:24:27;11.60;99.90
19968;DHT22;10145;49.152;9.282;2022-11-09T21:27:11;11.60;99.90
19968;DHT22;10145;49.152;9.282;2022-11-09T21:29:56;11.60;99.90
19968;DHT22;10145;49.152;9.282;2022-11-09T21:32:22;11.60;99.90
19968;DHT22;10145;49.152;9.282;2022-11-09T21:34:49;11.60;99.90
19968;DHT22;10145;49.152;9.282;2022-11-09T21:37:15;11.50;99.90
19968;DHT22;10145;49.152;9.282;2022-11-09T21:39:41;11.50;99.90
19968;DHT22;10145;49.152;9.282;2022-11-09T21:42:07;11.40;99.90
19968;DHT22;10145;49.152;9.282;2022-11-09T21:44:33;11.40;99.90
19968;DHT22;10145;49.152;9.282;2022-11-09T21:47:00;11.30;99.90
19968;DHT22;10145;49.152;9.282;2022-11-09T21:49:26;11.30;99.90
19968;DHT22;10145;49.152;9.282;2022-11-09T21:51:52;11.30;99.90
19968;DHT22;10145;49.152;9.282;2022-11-09T21:54:18;11.20;99.90
19968;DHT22;10145;49.152;9.282;2022-11-09T21:56:43;11.20;99.90
19968;DHT22;10145;49.152;9.282;2022-11-09T21:59:09;11.30;99.90
19968;DHT22;10145;49.152;9.282;2022-11-09T22:01:35;11.20;99.90
19968;DHT22;10145;49.152;9.282;2022-11-09T22:04:00;11.20;99.90
19968;DHT22;10145;49.152;9.282;2022-11-09T22:06:26;11.20;99.90
19968;DHT22;10145;49.152;9.282;2022-11-09T22:08:52;11.20;99.90
19968;DHT22;10145;49.152;9.282;2022-11-09T22:11:20;11.20;99.90
19968;DHT22;10145;49.152;9.282;2022-11-09T22:14:08;11.20;99.90
19968;DHT22;10145;49.152;9.282;2022-11-09T22:16:56;11.40;99.90
19968;DHT22;10145;49.152;9.282;2022-11-09T22:19:22;11.50;99.90
19968;DHT22;10145;49.152;9.282;2022-11-09T22:22:06;11.40;99.90
19968;DHT22;10145;49.152;9.282;2022-11-09T22:24:32;11.40;99.90
19968;DHT22;10145;49.152;9.282;2022-11-09T22:26:57;11.40;99.90
19968;DHT22;10145;49.152;9.282;2022-11-09T22:29:23;11.40;99.90
19968;DHT22;10145;49.152;9.282;2022-11-09T22:31:48;11.50;99.90
19968;DHT22;10145;49.152;9.282;2022-11-09T22:34:14;11.40;99.90
19968;DHT22;10145;49.152;9.282;2022-11-09T22:36:39;11.30;99.90
19968;DHT22;10145;49.152;9.282;2022-11-09T22:39:05;11.30;99.90
19968;DHT22;10145;49.152;9.282;2022-11-09T22:41:30;11.30;99.90